sensor_id;sensor_type;location;lat;lon;timestamp;P1;durP1;ratioP1;P2;durP2;ratioP2
73585;SDS011;61865;50.232;18.614;2023-10-19T00:01:49;128.00;;;67.03;;
73585;SDS011;61865;50.232;18.614;2023-10-19T00:06:32;120.03;;;63.75;;
73585;SDS011;61865;50.232;18.614;2023-10-19T00:08:55;144.93;;;72.15;;
73585;SDS011;61865;50.232;18.614;2023-10-19T00:11:19;133.98;;;72.13;;
73585;SDS011;61865;50.232;18.614;2023-10-19T00:13:44;146.32;;;74.70;;
73585;SDS011;61865;50.232;18.614;2023-10-19T00:18:36;129.40;;;66.60;;
73585;SDS011;61865;50.232;18.614;2023-10-19T00:21:02;138.35;;;68.57;;
73585;SDS011;61865;50.232;18.614;2023-10-19T00:23:31;137.07;;;71.20;;
73585;SDS011;61865;50.232;18.614;2023-10-19T00:25:54;152.80;;;74.70;;
73585;SDS011;61865;50.232;18.614;2023-10-19T00:28:17;152.20;;;73.97;;
73585;SDS011;61865;50.232;18.614;2023-10-19T00:30:38;152.27;;;69.75;;
73585;SDS011;61865;50.232;18.614;2023-10-19T00:33:02;131.20;;;68.43;;
73585;SDS011;61865;50.232;18.614;2023-10-19T00:35:35;142.85;;;68.47;;
73585;SDS011;61865;50.232;18.614;2023-10-19T00:38:03;130.10;;;66.53;;
73585;SDS011;61865;50.232;18.614;2023-10-19T00:40:50;115.47;;;61.72;;
73585;SDS011;61865;50.232;18.614;2023-10-19T00:43:29;124.13;;;62.13;;
73585;SDS011;61865;50.232;18.614;2023-10-19T00:45:54;127.53;;;62.42;;
73585;SDS011;61865;50.232;18.614;2023-10-19T00:48:17;124.25;;;60.05;;
73585;SDS011;61865;50.232;18.614;2023-10-19T00:50:43;139.85;;;62.08;;
73585;SDS011;61865;50.232;18.614;2023-10-19T00:53:08;143.73;;;62.42;;
73585;SDS011;61865;50.232;18.614;2023-10-19T00:55:32;139.18;;;63.22;;
73585;SDS011;61865;50.232;18.614;2023-10-19T00:57:56;139.20;;;66.00;;
73585;SDS011;61865;50.232;18.614;2023-10-19T01:00:25;135.43;;;68.70;;
73585;SDS011;61865;50.232;18.614;2023-10-19T01:02:51;148.13;;;73.03;;
73585;SDS011;61865;50.232;18.614;2023-10-19T01:05:19;145.15;;;65.90;;
73585;SDS011;61865;50.232;18.614;2023-10-19T01:07:42;146.93;;;65.25;;
73585;SDS011;61865;50.232;18.614;2023-10-19T01:10:07;161.15;;;68.93;;
73585;SDS011;61865;50.232;18.614;2023-10-19T01:12:32;119.93;;;56.17;;
73585;SDS011;61865;50.232;18.614;2023-10-19T01:15:06;124.72;;;58.78;;
73585;SDS011;61865;50.232;18.614;2023-10-19T01:17:35;130.82;;;64.75;;
73585;SDS011;61865;50.232;18.614;2023-10-19T01:19:59;128.90;;;65.72;;
73585;SDS011;61865;50.232;18.614;2023-10-19T01:22:32;126.47;;;62.20;;
73585;SDS011;61865;50.232;18.614;2023-10-19T01:24:57;139.80;;;59.45;;
73585;SDS011;61865;50.232;18.614;2023-10-19T01:27:19;126.50;;;60.78;;
73585;SDS011;61865;50.232;18.614;2023-10-19T01:29:42;109.32;;;55.03;;
73585;SDS011;61865;50.232;18.614;2023-10-19T01:32:04;133.32;;;59.25;;
73585;SDS011;61865;50.232;18.614;2023-10-19T01:34:28;116.88;;;55.15;;
73585;SDS011;61865;50.232;18.614;2023-10-19T01:36:51;107.90;;;53.00;;
73585;SDS011;61865;50.232;18.614;2023-10-19T01:39:14;123.63;;;60.20;;
73585;SDS011;61865;50.232;18.614;2023-10-19T01:41:40;109.90;;;51.03;;
73585;SDS011;61865;50.232;18.614;2023-10-19T01:44:01;100.50;;;48.92;;
73585;SDS011;61865;50.232;18.614;2023-10-19T01:46:33;99.47;;;52.83;;
73585;SDS011;61865;50.232;18.614;2023-10-19T01:48:55;122.07;;;59.53;;
73585;SDS011;61865;50.232;18.614;2023-10-19T01:51:17;132.50;;;60.85;;
73585;SDS011;61865;50.232;18.614;2023-10-19T01:56:03;115.50;;;56.70;;
73585;SDS011;61865;50.232;18.614;2023-10-19T01:58:27;101.70;;;55.20;;
73585;SDS011;61865;50.232;18.614;2023-10-19T02:00:49;101.00;;;52.65;;
73585;SDS011;61865;50.232;18.614;2023-10-19T02:05:32;134.68;;;65.63;;
73585;SDS011;61865;50.232;18.614;2023-10-19T02:07:59;103.93;;;52.95;;
73585;SDS011;61865;50.232;18.614;2023-10-19T02:12:42;100.63;;;52.03;;
73585;SDS011;61865;50.232;18.614;2023-10-19T02:15:08;97.65;;;46.15;;
73585;SDS011;61865;50.232;18.614;2023-10-19T02:17:31;96.35;;;50.45;;
73585;SDS011;61865;50.232;18.614;2023-10-19T02:19:54;102.30;;;51.08;;
73585;SDS011;61865;50.232;18.614;2023-10-19T02:22:19;105.32;;;53.95;;
73585;SDS011;61865;50.232;18.614;2023-10-19T02:27:02;80.78;;;42.78;;
73585;SDS011;61865;50.232;18.614;2023-10-19T02:29:24;105.28;;;51.70;;
73585;SDS011;61865;50.232;18.614;2023-10-19T02:31:48;100.10;;;53.05;;
73585;SDS011;61865;50.232;18.614;2023-10-19T02:34:10;100.30;;;47.75;;
73585;SDS011;61865;50.232;18.614;2023-10-19T02:36:35;94.18;;;50.45;;
73585;SDS011;61865;50.232;18.614;2023-10-19T02:38:58;95.65;;;51.67;;
73585;SDS011;61865;50.232;18.614;2023-10-19T02:41:20;101.20;;;45.35;;
73585;SDS011;61865;50.232;18.614;2023-10-19T02:43:41;79.35;;;40.83;;
73585;SDS011;61865;50.232;18.614;2023-10-19T02:46:06;73.57;;;37.80;;
73585;SDS011;61865;50.232;18.614;2023-10-19T02:48:32;63.88;;;35.05;;
73585;SDS011;61865;50.232;18.614;2023-10-19T02:50:55;59.35;;;35.63;;
73585;SDS011;61865;50.232;18.614;2023-10-19T02:53:26;51.65;;;32.30;;
73585;SDS011;61865;50.232;18.614;2023-10-19T02:55:48;71.35;;;38.58;;
73585;SDS011;61865;50.232;18.614;2023-10-19T02:58:11;78.82;;;40.72;;
73585;SDS011;61865;50.232;18.614;2023-10-19T03:00:36;77.35;;;39.30;;
73585;SDS011;61865;50.232;18.614;2023-10-19T03:02:59;66.47;;;37.92;;
73585;SDS011;61865;50.232;18.614;2023-10-19T03:05:26;45.55;;;28.88;;
73585;SDS011;61865;50.232;18.614;2023-10-19T03:07:48;51.97;;;28.45;;
73585;SDS011;61865;50.232;18.614;2023-10-19T03:10:12;39.70;;;23.55;;
73585;SDS011;61865;50.232;18.614;2023-10-19T03:12:43;43.20;;;26.10;;
73585;SDS011;61865;50.232;18.614;2023-10-19T03:15:07;50.70;;;27.10;;
73585;SDS011;61865;50.232;18.614;2023-10-19T03:17:29;54.47;;;25.73;;
73585;SDS011;61865;50.232;18.614;2023-10-19T03:19:52;53.88;;;28.38;;
73585;SDS011;61865;50.232;18.614;2023-10-19T03:22:14;52.17;;;25.38;;
73585;SDS011;61865;50.232;18.614;2023-10-19T03:24:37;44.65;;;24.95;;
73585;SDS011;61865;50.232;18.614;2023-10-19T03:27:00;65.03;;;35.63;;
73585;SDS011;61865;50.232;18.614;2023-10-19T03:29:28;73.35;;;41.15;;
73585;SDS011;61865;50.232;18.614;2023-10-19T03:31:51;82.03;;;43.85;;
73585;SDS011;61865;50.232;18.614;2023-10-19T03:34:14;79.78;;;43.85;;
73585;SDS011;61865;50.232;18.614;2023-10-19T03:36:37;68.85;;;38.47;;
73585;SDS011;61865;50.232;18.614;2023-10-19T03:39:01;69.65;;;40.65;;
73585;SDS011;61865;50.232;18.614;2023-10-19T03:41:31;65.72;;;38.85;;
73585;SDS011;61865;50.232;18.614;2023-10-19T03:43:56;56.72;;;32.08;;
73585;SDS011;61865;50.232;18.614;2023-10-19T03:46:18;52.42;;;31.23;;
73585;SDS011;61865;50.232;18.614;2023-10-19T03:48:48;66.63;;;32.63;;
73585;SDS011;61865;50.232;18.614;2023-10-19T03:51:10;46.97;;;28.88;;
73585;SDS011;61865;50.232;18.614;2023-10-19T03:53:34;43.60;;;28.08;;
73585;SDS011;61865;50.232;18.614;2023-10-19T03:55:58;47.53;;;26.88;;
73585;SDS011;61865;50.232;18.614;2023-10-19T03:58:23;49.35;;;30.65;;
73585;SDS011;61865;50.232;18.614;2023-10-19T04:00:49;68.00;;;41.78;;
73585;SDS011;61865;50.232;18.614;2023-10-19T04:03:11;80.40;;;48.65;;
73585;SDS011;61865;50.232;18.614;2023-10-19T04:07:58;57.28;;;29.92;;
73585;SDS011;61865;50.232;18.614;2023-10-19T04:10:21;50.33;;;29.90;;
73585;SDS011;61865;50.232;18.614;2023-10-19T04:13:00;51.65;;;30.25;;
73585;SDS011;61865;50.232;18.614;2023-10-19T04:15:22;47.83;;;29.98;;
73585;SDS011;61865;50.232;18.614;2023-10-19T04:17:47;53.50;;;29.33;;
73585;SDS011;61865;50.232;18.614;2023-10-19T04:20:10;45.15;;;27.13;;
73585;SDS011;61865;50.232;18.614;2023-10-19T04:22:49;44.55;;;29.15;;
73585;SDS011;61865;50.232;18.614;2023-10-19T04:25:11;46.95;;;28.30;;
73585;SDS011;61865;50.232;18.614;2023-10-19T04:27:35;48.35;;;28.10;;
73585;SDS011;61865;50.232;18.614;2023-10-19T04:29:59;39.35;;;26.38;;
73585;SDS011;61865;50.232;18.614;2023-10-19T04:32:22;45.33;;;26.02;;
73585;SDS011;61865;50.232;18.614;2023-10-19T04:34:46;40.90;;;25.52;;
73585;SDS011;61865;50.232;18.614;2023-10-19T04:37:10;47.28;;;26.73;;
73585;SDS011;61865;50.232;18.614;2023-10-19T04:39:38;47.28;;;26.17;;
73585;SDS011;61865;50.232;18.614;2023-10-19T04:42:02;51.35;;;27.38;;
73585;SDS011;61865;50.232;18.614;2023-10-19T04:44:26;41.47;;;24.95;;
73585;SDS011;61865;50.232;18.614;2023-10-19T04:46:51;40.63;;;25.08;;
73585;SDS011;61865;50.232;18.614;2023-10-19T04:49:17;40.50;;;25.60;;
73585;SDS011;61865;50.232;18.614;2023-10-19T04:51:39;44.67;;;24.60;;
73585;SDS011;61865;50.232;18.614;2023-10-19T04:54:03;38.75;;;23.98;;
73585;SDS011;61865;50.232;18.614;2023-10-19T04:56:25;48.13;;;23.95;;
73585;SDS011;61865;50.232;18.614;2023-10-19T04:58:48;40.33;;;25.13;;
73585;SDS011;61865;50.232;18.614;2023-10-19T05:01:10;40.35;;;24.98;;
73585;SDS011;61865;50.232;18.614;2023-10-19T05:03:34;39.40;;;23.73;;
73585;SDS011;61865;50.232;18.614;2023-10-19T05:05:56;36.05;;;22.88;;
73585;SDS011;61865;50.232;18.614;2023-10-19T05:08:19;46.47;;;24.83;;
73585;SDS011;61865;50.232;18.614;2023-10-19T05:10:45;43.13;;;24.85;;
73585;SDS011;61865;50.232;18.614;2023-10-19T05:13:08;38.30;;;24.48;;
73585;SDS011;61865;50.232;18.614;2023-10-19T05:15:31;40.67;;;24.98;;
73585;SDS011;61865;50.232;18.614;2023-10-19T05:17:54;43.47;;;23.30;;
73585;SDS011;61865;50.232;18.614;2023-10-19T05:20:18;36.15;;;22.90;;
73585;SDS011;61865;50.232;18.614;2023-10-19T05:22:41;39.50;;;25.70;;
73585;SDS011;61865;50.232;18.614;2023-10-19T05:25:03;35.72;;;23.60;;
73585;SDS011;61865;50.232;18.614;2023-10-19T05:27:28;37.10;;;23.35;;
73585;SDS011;61865;50.232;18.614;2023-10-19T05:29:50;37.95;;;23.20;;
73585;SDS011;61865;50.232;18.614;2023-10-19T05:32:12;43.33;;;23.02;;
73585;SDS011;61865;50.232;18.614;2023-10-19T05:34:35;42.13;;;23.73;;
73585;SDS011;61865;50.232;18.614;2023-10-19T05:36:58;34.17;;;23.08;;
73585;SDS011;61865;50.232;18.614;2023-10-19T05:39:22;34.85;;;23.40;;
73585;SDS011;61865;50.232;18.614;2023-10-19T05:41:49;39.80;;;22.48;;
73585;SDS011;61865;50.232;18.614;2023-10-19T05:44:14;35.67;;;22.85;;
73585;SDS011;61865;50.232;18.614;2023-10-19T05:46:36;40.80;;;23.95;;
73585;SDS011;61865;50.232;18.614;2023-10-19T05:49:00;38.53;;;24.20;;
73585;SDS011;61865;50.232;18.614;2023-10-19T05:51:24;49.05;;;25.50;;
73585;SDS011;61865;50.232;18.614;2023-10-19T05:53:48;40.00;;;26.33;;
73585;SDS011;61865;50.232;18.614;2023-10-19T05:56:11;51.40;;;26.98;;
73585;SDS011;61865;50.232;18.614;2023-10-19T05:58:33;55.47;;;26.27;;
73585;SDS011;61865;50.232;18.614;2023-10-19T06:00:57;41.67;;;26.02;;
73585;SDS011;61865;50.232;18.614;2023-10-19T06:03:20;48.35;;;24.92;;
73585;SDS011;61865;50.232;18.614;2023-10-19T06:05:42;46.55;;;26.00;;
73585;SDS011;61865;50.232;18.614;2023-10-19T06:08:05;40.70;;;25.42;;
73585;SDS011;61865;50.232;18.614;2023-10-19T06:10:29;40.67;;;25.42;;
73585;SDS011;61865;50.232;18.614;2023-10-19T06:12:52;44.03;;;24.65;;
73585;SDS011;61865;50.232;18.614;2023-10-19T06:15:15;34.95;;;23.80;;
73585;SDS011;61865;50.232;18.614;2023-10-19T06:17:38;41.33;;;24.58;;
73585;SDS011;61865;50.232;18.614;2023-10-19T06:20:01;38.78;;;24.25;;
73585;SDS011;61865;50.232;18.614;2023-10-19T06:22:24;36.42;;;21.90;;
73585;SDS011;61865;50.232;18.614;2023-10-19T06:24:48;37.55;;;23.65;;
73585;SDS011;61865;50.232;18.614;2023-10-19T06:27:13;44.05;;;23.10;;
73585;SDS011;61865;50.232;18.614;2023-10-19T06:29:36;42.05;;;23.15;;
73585;SDS011;61865;50.232;18.614;2023-10-19T06:31:58;39.03;;;23.58;;
73585;SDS011;61865;50.232;18.614;2023-10-19T06:34:20;40.83;;;23.02;;
73585;SDS011;61865;50.232;18.614;2023-10-19T06:36:42;40.17;;;23.98;;
73585;SDS011;61865;50.232;18.614;2023-10-19T06:39:05;34.55;;;22.23;;
73585;SDS011;61865;50.232;18.614;2023-10-19T06:41:28;38.83;;;23.55;;
73585;SDS011;61865;50.232;18.614;2023-10-19T06:43:52;34.15;;;21.50;;
73585;SDS011;61865;50.232;18.614;2023-10-19T06:46:14;41.40;;;23.17;;
73585;SDS011;61865;50.232;18.614;2023-10-19T06:48:36;40.35;;;23.77;;
73585;SDS011;61865;50.232;18.614;2023-10-19T06:50:58;33.10;;;22.67;;
73585;SDS011;61865;50.232;18.614;2023-10-19T06:53:21;35.05;;;22.25;;
73585;SDS011;61865;50.232;18.614;2023-10-19T06:55:44;32.85;;;21.63;;
73585;SDS011;61865;50.232;18.614;2023-10-19T06:58:06;34.47;;;23.13;;
73585;SDS011;61865;50.232;18.614;2023-10-19T07:00:31;40.08;;;22.13;;
73585;SDS011;61865;50.232;18.614;2023-10-19T07:02:54;36.38;;;22.33;;
73585;SDS011;61865;50.232;18.614;2023-10-19T07:05:17;35.00;;;21.75;;
73585;SDS011;61865;50.232;18.614;2023-10-19T07:07:42;36.88;;;21.02;;
73585;SDS011;61865;50.232;18.614;2023-10-19T07:10:05;36.67;;;21.63;;
73585;SDS011;61865;50.232;18.614;2023-10-19T07:12:28;33.88;;;20.83;;
73585;SDS011;61865;50.232;18.614;2023-10-19T07:14:50;33.38;;;20.80;;
73585;SDS011;61865;50.232;18.614;2023-10-19T07:17:14;34.03;;;19.02;;
73585;SDS011;61865;50.232;18.614;2023-10-19T07:19:36;31.77;;;20.98;;
73585;SDS011;61865;50.232;18.614;2023-10-19T07:21:58;32.85;;;20.35;;
73585;SDS011;61865;50.232;18.614;2023-10-19T07:24:24;32.67;;;20.23;;
73585;SDS011;61865;50.232;18.614;2023-10-19T07:26:46;29.67;;;19.40;;
73585;SDS011;61865;50.232;18.614;2023-10-19T07:29:23;30.60;;;20.25;;
73585;SDS011;61865;50.232;18.614;2023-10-19T07:31:46;46.15;;;20.02;;
73585;SDS011;61865;50.232;18.614;2023-10-19T07:34:10;38.72;;;20.55;;
73585;SDS011;61865;50.232;18.614;2023-10-19T07:36:35;35.05;;;20.83;;
73585;SDS011;61865;50.232;18.614;2023-10-19T07:38:58;40.92;;;20.42;;
73585;SDS011;61865;50.232;18.614;2023-10-19T07:41:20;34.00;;;20.60;;
73585;SDS011;61865;50.232;18.614;2023-10-19T07:43:43;34.53;;;19.55;;
73585;SDS011;61865;50.232;18.614;2023-10-19T07:46:07;33.90;;;20.52;;
73585;SDS011;61865;50.232;18.614;2023-10-19T07:48:32;33.65;;;19.98;;
73585;SDS011;61865;50.232;18.614;2023-10-19T07:50:55;38.08;;;20.25;;
73585;SDS011;61865;50.232;18.614;2023-10-19T07:53:19;33.58;;;19.10;;
73585;SDS011;61865;50.232;18.614;2023-10-19T07:55:41;30.35;;;19.73;;
73585;SDS011;61865;50.232;18.614;2023-10-19T07:58:04;28.52;;;19.63;;
73585;SDS011;61865;50.232;18.614;2023-10-19T08:00:26;31.73;;;19.40;;
73585;SDS011;61865;50.232;18.614;2023-10-19T08:02:51;33.03;;;18.65;;
73585;SDS011;61865;50.232;18.614;2023-10-19T08:05:15;33.33;;;18.83;;
73585;SDS011;61865;50.232;18.614;2023-10-19T08:07:40;32.33;;;19.35;;
73585;SDS011;61865;50.232;18.614;2023-10-19T08:10:03;45.63;;;20.92;;
73585;SDS011;61865;50.232;18.614;2023-10-19T08:12:30;30.65;;;18.63;;
73585;SDS011;61865;50.232;18.614;2023-10-19T08:14:53;32.40;;;18.73;;
73585;SDS011;61865;50.232;18.614;2023-10-19T08:17:15;31.58;;;18.52;;
73585;SDS011;61865;50.232;18.614;2023-10-19T08:19:38;36.00;;;19.40;;
73585;SDS011;61865;50.232;18.614;2023-10-19T08:22:01;33.15;;;19.02;;
73585;SDS011;61865;50.232;18.614;2023-10-19T08:24:26;36.35;;;19.80;;
73585;SDS011;61865;50.232;18.614;2023-10-19T08:26:50;32.85;;;19.70;;
73585;SDS011;61865;50.232;18.614;2023-10-19T08:29:13;34.85;;;19.83;;
73585;SDS011;61865;50.232;18.614;2023-10-19T08:31:35;36.53;;;19.48;;
73585;SDS011;61865;50.232;18.614;2023-10-19T08:33:57;34.97;;;19.35;;
73585;SDS011;61865;50.232;18.614;2023-10-19T08:36:20;34.15;;;20.42;;
73585;SDS011;61865;50.232;18.614;2023-10-19T08:38:42;37.17;;;20.42;;
73585;SDS011;61865;50.232;18.614;2023-10-19T08:41:06;36.03;;;20.02;;
73585;SDS011;61865;50.232;18.614;2023-10-19T08:43:29;29.65;;;20.48;;
73585;SDS011;61865;50.232;18.614;2023-10-19T08:45:53;34.22;;;20.30;;
73585;SDS011;61865;50.232;18.614;2023-10-19T08:48:16;41.13;;;19.17;;
73585;SDS011;61865;50.232;18.614;2023-10-19T08:50:39;33.45;;;19.52;;
73585;SDS011;61865;50.232;18.614;2023-10-19T08:53:02;34.70;;;18.30;;
73585;SDS011;61865;50.232;18.614;2023-10-19T08:55:25;34.47;;;18.73;;
73585;SDS011;61865;50.232;18.614;2023-10-19T08:57:49;29.48;;;17.70;;
73585;SDS011;61865;50.232;18.614;2023-10-19T09:00:12;34.13;;;17.95;;
73585;SDS011;61865;50.232;18.614;2023-10-19T09:02:37;27.85;;;17.40;;
73585;SDS011;61865;50.232;18.614;2023-10-19T09:05:01;27.67;;;17.30;;
73585;SDS011;61865;50.232;18.614;2023-10-19T09:07:27;33.05;;;18.40;;
73585;SDS011;61865;50.232;18.614;2023-10-19T09:09:50;34.55;;;18.73;;
73585;SDS011;61865;50.232;18.614;2023-10-19T09:12:13;36.92;;;18.35;;
73585;SDS011;61865;50.232;18.614;2023-10-19T09:14:37;34.13;;;17.60;;
73585;SDS011;61865;50.232;18.614;2023-10-19T09:17:01;27.83;;;17.45;;
73585;SDS011;61865;50.232;18.614;2023-10-19T09:19:35;31.60;;;18.80;;
73585;SDS011;61865;50.232;18.614;2023-10-19T09:21:57;38.72;;;19.50;;
73585;SDS011;61865;50.232;18.614;2023-10-19T09:24:20;40.15;;;17.38;;
73585;SDS011;61865;50.232;18.614;2023-10-19T09:26:42;32.50;;;18.27;;
73585;SDS011;61865;50.232;18.614;2023-10-19T09:29:04;35.42;;;18.45;;
73585;SDS011;61865;50.232;18.614;2023-10-19T09:31:29;27.00;;;17.88;;
73585;SDS011;61865;50.232;18.614;2023-10-19T09:33:51;35.22;;;18.83;;
73585;SDS011;61865;50.232;18.614;2023-10-19T09:36:15;27.90;;;17.83;;
73585;SDS011;61865;50.232;18.614;2023-10-19T09:38:38;30.30;;;17.48;;
73585;SDS011;61865;50.232;18.614;2023-10-19T09:41:02;29.17;;;17.00;;
73585;SDS011;61865;50.232;18.614;2023-10-19T09:43:30;30.25;;;18.45;;
73585;SDS011;61865;50.232;18.614;2023-10-19T09:45:56;28.85;;;17.85;;
73585;SDS011;61865;50.232;18.614;2023-10-19T09:48:21;30.05;;;18.58;;
73585;SDS011;61865;50.232;18.614;2023-10-19T09:50:45;34.13;;;17.95;;
73585;SDS011;61865;50.232;18.614;2023-10-19T09:53:14;35.60;;;21.17;;
73585;SDS011;61865;50.232;18.614;2023-10-19T09:55:38;40.13;;;20.58;;
73585;SDS011;61865;50.232;18.614;2023-10-19T09:58:02;31.33;;;17.98;;
73585;SDS011;61865;50.232;18.614;2023-10-19T10:00:27;31.30;;;18.30;;
73585;SDS011;61865;50.232;18.614;2023-10-19T10:02:51;27.00;;;17.73;;
73585;SDS011;61865;50.232;18.614;2023-10-19T10:10:35;37.45;;;19.10;;
73585;SDS011;61865;50.232;18.614;2023-10-19T10:13:08;29.98;;;18.55;;
73585;SDS011;61865;50.232;18.614;2023-10-19T10:18:13;31.10;;;19.83;;
73585;SDS011;61865;50.232;18.614;2023-10-19T10:20:37;32.63;;;19.75;;
73585;SDS011;61865;50.232;18.614;2023-10-19T10:23:18;32.38;;;20.40;;
73585;SDS011;61865;50.232;18.614;2023-10-19T10:25:46;34.38;;;20.65;;
73585;SDS011;61865;50.232;18.614;2023-10-19T10:28:12;36.58;;;19.75;;
73585;SDS011;61865;50.232;18.614;2023-10-19T10:30:35;34.40;;;20.30;;
73585;SDS011;61865;50.232;18.614;2023-10-19T10:32:57;33.63;;;18.90;;
73585;SDS011;61865;50.232;18.614;2023-10-19T10:38:01;34.58;;;19.00;;
73585;SDS011;61865;50.232;18.614;2023-10-19T10:40:25;33.38;;;19.23;;
73585;SDS011;61865;50.232;18.614;2023-10-19T10:42:49;30.80;;;17.75;;
73585;SDS011;61865;50.232;18.614;2023-10-19T10:45:26;28.52;;;17.13;;
73585;SDS011;61865;50.232;18.614;2023-10-19T10:47:48;28.23;;;17.27;;
73585;SDS011;61865;50.232;18.614;2023-10-19T10:50:10;31.33;;;17.65;;
73585;SDS011;61865;50.232;18.614;2023-10-19T10:52:33;30.45;;;17.73;;
73585;SDS011;61865;50.232;18.614;2023-10-19T10:54:55;25.35;;;17.08;;
73585;SDS011;61865;50.232;18.614;2023-10-19T10:57:18;31.40;;;18.15;;
73585;SDS011;61865;50.232;18.614;2023-10-19T10:59:41;33.28;;;17.23;;
73585;SDS011;61865;50.232;18.614;2023-10-19T11:02:15;35.25;;;18.15;;
73585;SDS011;61865;50.232;18.614;2023-10-19T11:04:42;35.95;;;18.38;;
73585;SDS011;61865;50.232;18.614;2023-10-19T11:07:06;28.30;;;18.42;;
73585;SDS011;61865;50.232;18.614;2023-10-19T11:09:46;26.27;;;16.10;;
73585;SDS011;61865;50.232;18.614;2023-10-19T11:12:10;36.35;;;17.80;;
73585;SDS011;61865;50.232;18.614;2023-10-19T11:14:33;29.58;;;16.95;;
73585;SDS011;61865;50.232;18.614;2023-10-19T11:16:56;27.30;;;15.88;;
73585;SDS011;61865;50.232;18.614;2023-10-19T11:19:39;29.45;;;17.40;;
73585;SDS011;61865;50.232;18.614;2023-10-19T11:22:01;31.75;;;17.70;;
73585;SDS011;61865;50.232;18.614;2023-10-19T11:24:24;32.58;;;17.38;;
73585;SDS011;61865;50.232;18.614;2023-10-19T11:26:48;28.48;;;17.35;;
73585;SDS011;61865;50.232;18.614;2023-10-19T11:29:16;33.00;;;18.25;;
73585;SDS011;61865;50.232;18.614;2023-10-19T11:31:38;31.50;;;18.10;;
73585;SDS011;61865;50.232;18.614;2023-10-19T11:34:03;34.22;;;18.48;;
73585;SDS011;61865;50.232;18.614;2023-10-19T11:36:25;31.40;;;19.08;;
73585;SDS011;61865;50.232;18.614;2023-10-19T11:38:50;29.80;;;19.40;;
73585;SDS011;61865;50.232;18.614;2023-10-19T11:41:13;32.70;;;20.90;;
73585;SDS011;61865;50.232;18.614;2023-10-19T11:43:35;32.92;;;21.23;;
73585;SDS011;61865;50.232;18.614;2023-10-19T11:45:57;36.08;;;22.20;;
73585;SDS011;61865;50.232;18.614;2023-10-19T11:48:20;50.92;;;27.58;;
73585;SDS011;61865;50.232;18.614;2023-10-19T11:50:43;45.67;;;25.83;;
73585;SDS011;61865;50.232;18.614;2023-10-19T11:53:06;31.90;;;19.75;;
73585;SDS011;61865;50.232;18.614;2023-10-19T11:55:31;30.67;;;20.10;;
73585;SDS011;61865;50.232;18.614;2023-10-19T11:57:53;31.85;;;19.85;;
73585;SDS011;61865;50.232;18.614;2023-10-19T12:00:16;39.33;;;24.25;;
73585;SDS011;61865;50.232;18.614;2023-10-19T12:02:42;34.67;;;23.95;;
73585;SDS011;61865;50.232;18.614;2023-10-19T12:05:04;33.90;;;23.13;;
73585;SDS011;61865;50.232;18.614;2023-10-19T12:07:31;37.53;;;22.60;;
73585;SDS011;61865;50.232;18.614;2023-10-19T12:09:54;33.08;;;21.90;;
73585;SDS011;61865;50.232;18.614;2023-10-19T12:12:16;34.03;;;23.58;;
73585;SDS011;61865;50.232;18.614;2023-10-19T12:14:38;37.10;;;22.08;;
73585;SDS011;61865;50.232;18.614;2023-10-19T12:17:01;41.13;;;22.83;;
73585;SDS011;61865;50.232;18.614;2023-10-19T12:19:23;38.67;;;22.63;;
73585;SDS011;61865;50.232;18.614;2023-10-19T12:21:45;34.20;;;21.45;;
73585;SDS011;61865;50.232;18.614;2023-10-19T12:24:11;39.63;;;22.25;;
73585;SDS011;61865;50.232;18.614;2023-10-19T12:26:35;37.20;;;21.48;;
73585;SDS011;61865;50.232;18.614;2023-10-19T12:28:58;52.17;;;20.98;;
73585;SDS011;61865;50.232;18.614;2023-10-19T12:31:21;30.15;;;19.48;;
73585;SDS011;61865;50.232;18.614;2023-10-19T12:33:43;34.65;;;20.00;;
73585;SDS011;61865;50.232;18.614;2023-10-19T12:36:06;37.08;;;20.63;;
73585;SDS011;61865;50.232;18.614;2023-10-19T12:38:44;45.95;;;23.80;;
73585;SDS011;61865;50.232;18.614;2023-10-19T12:41:08;41.50;;;25.25;;
73585;SDS011;61865;50.232;18.614;2023-10-19T12:43:31;48.45;;;28.73;;
73585;SDS011;61865;50.232;18.614;2023-10-19T12:45:54;45.25;;;26.98;;
73585;SDS011;61865;50.232;18.614;2023-10-19T12:48:18;43.45;;;24.48;;
73585;SDS011;61865;50.232;18.614;2023-10-19T12:50:40;36.38;;;23.85;;
73585;SDS011;61865;50.232;18.614;2023-10-19T12:53:03;39.42;;;21.65;;
73585;SDS011;61865;50.232;18.614;2023-10-19T12:55:26;37.40;;;22.50;;
73585;SDS011;61865;50.232;18.614;2023-10-19T12:57:51;33.00;;;20.60;;
73585;SDS011;61865;50.232;18.614;2023-10-19T13:00:14;41.53;;;21.83;;
73585;SDS011;61865;50.232;18.614;2023-10-19T13:02:46;33.60;;;21.38;;
73585;SDS011;61865;50.232;18.614;2023-10-19T13:05:08;36.63;;;22.92;;
73585;SDS011;61865;50.232;18.614;2023-10-19T13:07:31;35.78;;;21.00;;
73585;SDS011;61865;50.232;18.614;2023-10-19T13:09:54;41.13;;;24.52;;
73585;SDS011;61865;50.232;18.614;2023-10-19T13:12:18;35.90;;;25.83;;
73585;SDS011;61865;50.232;18.614;2023-10-19T13:14:45;33.30;;;21.75;;
73585;SDS011;61865;50.232;18.614;2023-10-19T13:17:07;39.13;;;24.65;;
73585;SDS011;61865;50.232;18.614;2023-10-19T13:19:29;43.40;;;26.85;;
73585;SDS011;61865;50.232;18.614;2023-10-19T13:21:52;46.95;;;27.30;;
73585;SDS011;61865;50.232;18.614;2023-10-19T13:24:14;43.30;;;27.38;;
73585;SDS011;61865;50.232;18.614;2023-10-19T13:26:37;45.95;;;28.77;;
73585;SDS011;61865;50.232;18.614;2023-10-19T13:29:02;46.08;;;29.70;;
73585;SDS011;61865;50.232;18.614;2023-10-19T13:31:26;44.67;;;28.98;;
73585;SDS011;61865;50.232;18.614;2023-10-19T13:33:48;50.67;;;30.00;;
73585;SDS011;61865;50.232;18.614;2023-10-19T13:36:12;46.55;;;29.65;;
73585;SDS011;61865;50.232;18.614;2023-10-19T13:38:36;49.33;;;28.85;;
73585;SDS011;61865;50.232;18.614;2023-10-19T13:40:58;51.33;;;28.48;;
73585;SDS011;61865;50.232;18.614;2023-10-19T13:43:21;46.25;;;28.02;;
73585;SDS011;61865;50.232;18.614;2023-10-19T13:45:43;42.95;;;28.25;;
73585;SDS011;61865;50.232;18.614;2023-10-19T13:48:08;44.20;;;28.00;;
73585;SDS011;61865;50.232;18.614;2023-10-19T13:50:31;42.67;;;26.98;;
73585;SDS011;61865;50.232;18.614;2023-10-19T13:52:53;42.33;;;26.40;;
73585;SDS011;61865;50.232;18.614;2023-10-19T13:55:17;43.35;;;27.50;;
73585;SDS011;61865;50.232;18.614;2023-10-19T13:57:40;43.30;;;27.13;;
73585;SDS011;61865;50.232;18.614;2023-10-19T14:00:03;40.40;;;27.83;;
73585;SDS011;61865;50.232;18.614;2023-10-19T14:02:28;42.53;;;27.63;;
73585;SDS011;61865;50.232;18.614;2023-10-19T14:04:51;46.35;;;27.35;;
73585;SDS011;61865;50.232;18.614;2023-10-19T14:07:14;38.72;;;26.05;;
73585;SDS011;61865;50.232;18.614;2023-10-19T14:09:36;41.42;;;27.05;;
73585;SDS011;61865;50.232;18.614;2023-10-19T14:11:58;37.38;;;25.50;;
73585;SDS011;61865;50.232;18.614;2023-10-19T14:14:24;44.00;;;26.52;;
73585;SDS011;61865;50.232;18.614;2023-10-19T14:16:47;36.63;;;26.65;;